Flight NumberIRM1165 Date06.05.2018
Departure AirportORBI Arrival AirportOIMM
Departure Time22.39Arrival Time23.30
Pilot In CommandSaeed TabaTabaei Block Time1.80 Hours
Pilot Rating100 % AircraftEP-MNI [ A300-600 ]


Distance781.00 Nm. Passengers280
Fuel Used11,405 Kg. Cargo12635 Kg
Expense Details Income Details
Fuel Cost9,718 v$Ticket Sales37,800 v$
Pilot Salary4,336 v$ Cargo income23,974.00 v$
Crew Salary1,400 v$ Bonus10,324 v$
Gross Profit57,610 v$ ( 576,100 v$ )

Client Versionv2.2.0.rc3 Max Simrate1
Flight Critique Pilot CommentsOIMM 052100Z 20004KT CAVOK 19/M03 Q1016 A3000 // DCT FINAL RWY 31R FOR ILS APP